createdAt,value
2022-12-04T00:05:01.968Z,107.60
2022-12-04T00:10:08.387Z,96.53
2022-12-04T00:15:27.754Z,93.03
2022-12-04T00:20:31.464Z,100.00
2022-12-04T00:25:41.168Z,99.70
2022-12-04T00:30:46.248Z,97.72
2022-12-04T00:35:49.986Z,93.72
2022-12-04T00:40:55.627Z,97.15
2022-12-04T00:45:59.420Z,100.90
2022-12-04T00:51:04.105Z,97.57
2022-12-04T00:56:11.490Z,99.45
2022-12-04T01:01:16.942Z,99.80
2022-12-04T01:06:23.397Z,91.45
2022-12-04T01:11:30.034Z,95.22
2022-12-04T01:16:36.286Z,97.78
2022-12-04T01:21:40.294Z,95.78
2022-12-04T01:26:45.359Z,103.40
2022-12-04T01:31:49.122Z,97.32
2022-12-04T01:36:53.037Z,102.85
2022-12-04T01:41:58.388Z,90.87
2022-12-04T01:47:02.501Z,93.10
2022-12-04T01:52:10.965Z,95.62
2022-12-04T01:57:18.553Z,99.70
2022-12-04T02:02:25.849Z,99.57
2022-12-04T02:07:30.310Z,73.60
2022-12-04T02:12:43.019Z,94.55
2022-12-04T02:17:55.349Z,94.87
2022-12-04T02:23:26.189Z,102.00
2022-12-04T02:28:36.714Z,97.70
2022-12-04T02:33:45.948Z,93.03
2022-12-04T02:38:56.474Z,95.40
2022-12-04T02:44:08.063Z,98.82
2022-12-04T02:49:18.696Z,93.43
2022-12-04T02:54:26.641Z,96.07
2022-12-04T03:04:39.570Z,98.07
2022-12-04T03:09:47.450Z,101.55
2022-12-04T03:14:58.348Z,100.70
2022-12-04T03:20:07.367Z,92.43
2022-12-04T03:25:12.015Z,99.07
2022-12-04T03:30:20.758Z,96.00
2022-12-04T03:35:30.259Z,97.30
2022-12-04T03:40:38.756Z,104.90
2022-12-04T03:45:48.976Z,104.38
2022-12-04T03:51:02.139Z,96.63
2022-12-04T03:56:12.599Z,96.78
2022-12-04T04:01:22.351Z,99.43
2022-12-04T04:06:31.849Z,100.07
2022-12-04T04:11:41.253Z,91.37
2022-12-04T04:17:07.817Z,96.43
2022-12-04T04:22:29.040Z,99.18
2022-12-04T04:27:32.739Z,86.10
2022-12-04T04:32:44.698Z,101.30
2022-12-04T04:37:57.784Z,101.65
2022-12-04T04:43:07.411Z,102.10
2022-12-04T04:48:16.330Z,95.95
2022-12-04T04:53:24.135Z,100.97
2022-12-04T04:58:27.880Z,99.45
2022-12-04T05:03:33.407Z,100.57
2022-12-04T05:08:37.361Z,95.05
2022-12-04T05:13:41.798Z,97.25
2022-12-04T05:19:07.633Z,97.30
2022-12-04T05:24:11.361Z,95.90
2022-12-04T05:29:15.084Z,95.32
2022-12-04T05:34:20.148Z,96.70
2022-12-04T05:39:23.945Z,90.53
2022-12-04T05:44:27.714Z,102.10
2022-12-04T05:49:34.365Z,95.95
2022-12-04T05:54:38.141Z,97.80
2022-12-04T05:59:41.910Z,95.87
2022-12-04T06:04:47.110Z,100.65
2022-12-04T06:09:50.807Z,97.53
2022-12-04T06:14:54.502Z,97.03
2022-12-04T06:20:00.240Z,97.75
2022-12-04T06:25:04.795Z,96.03
2022-12-04T06:30:09.726Z,94.30
2022-12-04T06:35:14.804Z,97.35
2022-12-04T06:40:18.510Z,96.50
2022-12-04T06:45:22.238Z,102.45
2022-12-04T06:50:27.297Z,97.80
2022-12-04T06:55:31.015Z,99.47
2022-12-04T07:00:34.716Z,99.80
2022-12-04T07:05:39.739Z,92.40
2022-12-04T07:10:43.786Z,99.07
2022-12-04T07:15:47.456Z,97.05
2022-12-04T07:20:52.562Z,98.18
2022-12-04T07:25:56.199Z,94.53
2022-12-04T07:30:59.915Z,96.07
2022-12-04T07:36:08.024Z,100.15
2022-12-04T07:46:18.360Z,92.30
2022-12-04T07:51:25.775Z,87.45
2022-12-04T07:56:29.694Z,70.00
2022-12-04T08:01:33.965Z,86.05
2022-12-04T08:06:39.603Z,91.68
2022-12-04T08:11:43.422Z,86.32
2022-12-04T08:16:52.700Z,103.55
2022-12-04T08:21:58.156Z,87.65
2022-12-04T08:27:01.892Z,84.57
2022-12-04T08:32:05.982Z,87.43
2022-12-04T08:37:11.021Z,88.35
2022-12-04T08:42:14.699Z,78.70
2022-12-04T08:47:18.508Z,81.78
2022-12-04T08:52:23.595Z,75.90
2022-12-04T08:57:27.282Z,72.72
2022-12-04T09:02:30.958Z,74.37
2022-12-04T09:07:36.149Z,76.37
2022-12-04T09:12:40.117Z,78.43
2022-12-04T09:17:43.839Z,72.53
2022-12-04T09:23:03.564Z,68.40
2022-12-04T09:28:07.966Z,70.80
2022-12-04T09:33:11.685Z,72.20
2022-12-04T09:38:16.782Z,65.45
2022-12-04T09:43:32.728Z,68.12
2022-12-04T09:48:41.761Z,66.35
2022-12-04T09:53:50.712Z,66.93
2022-12-04T09:58:59.259Z,73.35
2022-12-04T10:04:06.284Z,72.53
2022-12-04T10:09:18.412Z,67.80
2022-12-04T10:14:42.873Z,62.10
2022-12-04T10:19:57.742Z,64.43
2022-12-04T10:25:09.498Z,65.12
2022-12-04T10:30:20.357Z,62.70
2022-12-04T10:35:26.298Z,52.78
2022-12-04T10:40:36.544Z,57.30
2022-12-04T10:45:40.306Z,52.97
2022-12-04T10:50:45.563Z,50.15
2022-12-04T10:55:50.743Z,45.08
2022-12-04T11:01:04.960Z,49.15
2022-12-04T11:06:11.336Z,48.10
2022-12-04T11:11:23.521Z,45.15
2022-12-04T11:16:35.407Z,45.92
2022-12-04T11:21:39.727Z,53.03
2022-12-04T11:26:44.964Z,48.65
2022-12-04T11:31:50.477Z,45.80
2022-12-04T11:36:57.272Z,49.20
2022-12-04T11:42:07.595Z,46.72
2022-12-04T11:47:18.959Z,48.17
2022-12-04T11:52:32.639Z,50.92
2022-12-04T11:57:44.658Z,50.88
2022-12-04T12:03:10.898Z,47.83
2022-12-04T12:08:24.918Z,45.78
2022-12-04T12:13:36.666Z,49.00
2022-12-04T12:18:55.195Z,46.10
2022-12-04T12:24:10.695Z,49.00
2022-12-04T12:29:30.016Z,44.72
2022-12-04T12:34:39.010Z,43.17
2022-12-04T12:39:49.758Z,45.70
2022-12-04T12:45:04.186Z,45.90
2022-12-04T12:50:16.057Z,44.22
2022-12-04T12:55:25.042Z,40.58
2022-12-04T13:00:33.162Z,34.83
2022-12-04T13:10:49.187Z,39.38
2022-12-04T13:15:59.282Z,38.53
2022-12-04T13:21:07.596Z,35.95
2022-12-04T13:26:22.762Z,35.10
2022-12-04T13:31:36.580Z,38.10
2022-12-04T13:36:58.467Z,37.25
2022-12-04T13:42:05.145Z,38.67
2022-12-04T13:47:28.193Z,39.78
2022-12-04T13:52:40.761Z,39.15
2022-12-04T13:57:54.305Z,37.95
2022-12-04T14:03:02.291Z,40.15
2022-12-04T14:08:09.317Z,34.60
2022-12-04T14:13:20.779Z,35.25
2022-12-04T14:18:30.610Z,39.75
2022-12-04T14:23:39.013Z,39.78
2022-12-04T14:28:45.225Z,39.83
2022-12-04T14:33:53.677Z,36.58
2022-12-04T14:39:05.003Z,38.40
2022-12-04T14:44:20.006Z,34.65
2022-12-04T14:49:36.731Z,43.00
2022-12-04T14:54:51.592Z,33.13
2022-12-04T14:59:56.800Z,36.25
2022-12-04T15:05:03.933Z,33.40
2022-12-04T15:10:38.383Z,32.10
2022-12-04T15:15:46.949Z,37.28
2022-12-04T15:20:58.049Z,32.55
2022-12-04T15:26:04.250Z,32.60
2022-12-04T15:31:15.303Z,35.58
2022-12-04T15:36:32.634Z,36.72
2022-12-04T15:41:38.291Z,35.20
2022-12-04T15:46:44.534Z,41.33
2022-12-04T15:51:49.824Z,32.28
2022-12-04T15:57:01.914Z,35.45
2022-12-04T16:02:10.109Z,35.35
2022-12-04T16:07:23.613Z,34.78
2022-12-04T16:12:29.687Z,37.78
2022-12-04T16:17:36.466Z,34.53
2022-12-04T16:22:42.381Z,40.95
2022-12-04T16:27:46.041Z,36.15
2022-12-04T16:32:49.740Z,32.42
2022-12-04T16:37:54.859Z,38.50
2022-12-04T16:42:58.539Z,31.83
2022-12-04T16:48:02.298Z,33.72
2022-12-04T16:53:07.370Z,31.37
2022-12-04T16:58:11.097Z,32.85
2022-12-04T17:03:17.987Z,33.10
2022-12-04T17:08:24.198Z,34.55
2022-12-04T17:13:27.953Z,37.88
2022-12-04T17:18:31.685Z,37.05
2022-12-04T17:23:36.781Z,35.03
2022-12-04T17:28:41.291Z,36.90
2022-12-04T17:33:45.846Z,41.67
2022-12-04T17:38:54.203Z,40.63
2022-12-04T17:44:01.018Z,39.30
2022-12-04T17:49:07.304Z,48.95
2022-12-04T17:54:13.105Z,47.00
2022-12-04T17:59:16.845Z,48.65
2022-12-04T18:04:20.836Z,51.55
2022-12-04T18:09:25.949Z,47.85
2022-12-04T18:14:30.459Z,50.75
2022-12-04T18:19:34.207Z,58.63
2022-12-04T18:24:39.637Z,51.90
2022-12-04T18:29:43.499Z,57.17
2022-12-04T18:34:47.227Z,52.75
2022-12-04T18:39:52.350Z,54.75
2022-12-04T18:44:56.011Z,60.78
2022-12-04T18:50:00.006Z,69.20
2022-12-04T18:55:05.964Z,51.90
2022-12-04T19:00:10.550Z,61.45
2022-12-04T19:05:14.558Z,61.15
2022-12-04T19:10:19.856Z,56.30
2022-12-04T19:15:23.856Z,52.15
2022-12-04T19:20:27.585Z,49.35
2022-12-04T19:25:32.788Z,49.15
2022-12-04T19:30:36.600Z,47.00
2022-12-04T19:35:40.335Z,50.90
2022-12-04T19:40:45.473Z,53.90
2022-12-04T19:45:49.553Z,46.60
2022-12-04T19:50:53.366Z,52.62
2022-12-04T19:55:58.623Z,53.33
2022-12-04T20:01:03.125Z,46.65
2022-12-04T20:06:08.864Z,53.67
2022-12-04T20:11:17.027Z,49.42
2022-12-04T20:16:21.013Z,55.00
2022-12-04T20:21:28.437Z,53.30
2022-12-04T20:26:37.214Z,51.97
2022-12-04T20:31:42.919Z,56.28
2022-12-04T20:36:48.507Z,51.25
2022-12-04T20:41:53.643Z,52.45
2022-12-04T20:46:59.421Z,49.22
2022-12-04T20:52:03.245Z,45.60
2022-12-04T20:57:08.468Z,43.92
2022-12-04T21:02:14.596Z,44.60
2022-12-04T21:07:18.432Z,48.30
2022-12-04T21:12:43.257Z,48.45
2022-12-04T21:17:47.257Z,47.78
2022-12-04T21:22:53.770Z,46.28
2022-12-04T21:27:58.800Z,45.40
2022-12-04T21:33:02.643Z,43.17
2022-12-04T21:38:06.372Z,42.62
2022-12-04T21:43:11.444Z,48.35
2022-12-04T21:48:15.224Z,45.67
2022-12-04T21:53:18.989Z,44.25
2022-12-04T21:58:25.405Z,46.78
2022-12-04T22:03:29.158Z,48.17
2022-12-04T22:08:35.704Z,45.28
2022-12-04T22:13:41.177Z,43.75
2022-12-04T22:18:45.336Z,44.65
2022-12-04T22:23:49.144Z,47.80
2022-12-04T22:28:54.625Z,51.75
2022-12-04T22:34:00.672Z,48.30
2022-12-04T22:39:11.677Z,48.08
2022-12-04T22:44:16.798Z,49.65
2022-12-04T22:49:20.704Z,53.67
2022-12-04T22:54:24.475Z,55.55
2022-12-04T22:59:29.640Z,62.22
2022-12-04T23:04:33.477Z,59.92
2022-12-04T23:09:37.517Z,62.42
2022-12-04T23:14:42.615Z,62.00
2022-12-04T23:19:46.304Z,67.22
2022-12-04T23:24:50.024Z,60.55
2022-12-04T23:29:55.059Z,62.40
2022-12-04T23:34:58.752Z,62.95
2022-12-04T23:40:02.421Z,64.85
2022-12-04T23:45:08.512Z,70.00
2022-12-04T23:50:12.235Z,63.83
2022-12-04T23:55:16.053Z,70.43
